sensor_id;sensor_type;location;lat;lon;timestamp;pressure;altitude;pressure_sealevel;temperature;humidity
6528;BME280;3297;42.664;23.256;2022-10-16T00:01:37;50389.47;;;-139.84;78.82
6528;BME280;3297;42.664;23.256;2022-10-16T00:04:04;50329.22;;;-139.84;78.77
6528;BME280;3297;42.664;23.256;2022-10-16T00:06:31;50360.31;;;-139.84;78.60
6528;BME280;3297;42.664;23.256;2022-10-16T00:08:58;50346.72;;;-139.84;78.64
6528;BME280;3297;42.664;23.256;2022-10-16T00:11:26;50375.88;;;-139.84;78.81
6528;BME280;3297;42.664;23.256;2022-10-16T00:13:59;50338.94;;;-139.84;79.09
6528;BME280;3297;42.664;23.256;2022-10-16T00:16:25;50362.25;;;-139.84;79.65
6528;BME280;3297;42.664;23.256;2022-10-16T00:18:51;50358.38;;;-139.84;79.98
6528;BME280;3297;42.664;23.256;2022-10-16T00:21:20;50348.66;;;-139.84;80.12
6528;BME280;3297;42.664;23.256;2022-10-16T00:23:49;50354.47;;;-139.84;80.09
6528;BME280;3297;42.664;23.256;2022-10-16T00:26:17;50362.25;;;-139.84;80.00
6528;BME280;3297;42.664;23.256;2022-10-16T00:28:48;50344.75;;;-139.84;79.59
6528;BME280;3297;42.664;23.256;2022-10-16T00:31:15;50350.59;;;-139.84;79.34
6528;BME280;3297;42.664;23.256;2022-10-16T00:33:42;50346.72;;;-139.84;79.10
6528;BME280;3297;42.664;23.256;2022-10-16T00:36:11;50358.38;;;-139.84;78.58
6528;BME280;3297;42.664;23.256;2022-10-16T00:38:38;50360.31;;;-139.84;78.30
6528;BME280;3297;42.664;23.256;2022-10-16T00:41:05;50350.59;;;-139.84;78.33
6528;BME280;3297;42.664;23.256;2022-10-16T00:43:48;50366.16;;;-139.84;78.08
6528;BME280;3297;42.664;23.256;2022-10-16T00:46:27;50362.25;;;-139.84;78.64
6528;BME280;3297;42.664;23.256;2022-10-16T00:51:34;50416.69;;;-139.84;79.28
6528;BME280;3297;42.664;23.256;2022-10-16T00:54:02;50331.16;;;-139.84;79.29
6528;BME280;3297;42.664;23.256;2022-10-16T00:56:29;50288.41;;;-139.84;79.53
6528;BME280;3297;42.664;23.256;2022-10-16T00:58:55;50311.72;;;-139.84;79.42
6528;BME280;3297;42.664;23.256;2022-10-16T01:01:22;50381.69;;;-139.84;79.31
6528;BME280;3297;42.664;23.256;2022-10-16T01:03:48;50331.16;;;-139.84;78.50
6528;BME280;3297;42.664;23.256;2022-10-16T01:06:21;50346.72;;;-139.84;78.13
6528;BME280;3297;42.664;23.256;2022-10-16T01:11:38;50366.16;;;-139.84;78.40
6528;BME280;3297;42.664;23.256;2022-10-16T01:14:35;50381.69;;;-139.84;78.70
6528;BME280;3297;42.664;23.256;2022-10-16T01:17:04;50342.81;;;-139.84;78.93
6528;BME280;3297;42.664;23.256;2022-10-16T01:19:36;50370.03;;;-139.84;78.94
6528;BME280;3297;42.664;23.256;2022-10-16T01:22:06;50358.38;;;-139.84;78.94
6528;BME280;3297;42.664;23.256;2022-10-16T01:24:41;50331.16;;;-139.84;79.01
6528;BME280;3297;42.664;23.256;2022-10-16T01:32:24;50370.03;;;-139.84;78.88
6528;BME280;3297;42.664;23.256;2022-10-16T01:35:04;50350.59;;;-139.84;78.56
6528;BME280;3297;42.664;23.256;2022-10-16T01:37:41;50370.03;;;-139.84;78.89
6528;BME280;3297;42.664;23.256;2022-10-16T01:40:13;50362.25;;;-139.84;78.75
6528;BME280;3297;42.664;23.256;2022-10-16T01:42:48;50335.06;;;-139.84;78.65
6528;BME280;3297;42.664;23.256;2022-10-16T01:45:16;50389.47;;;-139.84;78.97
6528;BME280;3297;42.664;23.256;2022-10-16T01:47:45;50370.03;;;-139.84;79.28
6528;BME280;3297;42.664;23.256;2022-10-16T01:50:14;50321.44;;;-139.84;79.28
6528;BME280;3297;42.664;23.256;2022-10-16T01:52:44;50436.13;;;-139.84;79.25
6528;BME280;3297;42.664;23.256;2022-10-16T01:55:13;50323.38;;;-139.84;79.42
6528;BME280;3297;42.664;23.256;2022-10-16T01:57:42;50335.06;;;-139.84;79.58
6528;BME280;3297;42.664;23.256;2022-10-16T02:00:12;50381.69;;;-139.84;79.70
6528;BME280;3297;42.664;23.256;2022-10-16T02:02:44;50342.81;;;-139.84;79.46
6528;BME280;3297;42.664;23.256;2022-10-16T02:07:39;50381.69;;;-139.84;79.12
6528;BME280;3297;42.664;23.256;2022-10-16T02:10:08;50337.00;;;-139.84;79.38
6528;BME280;3297;42.664;23.256;2022-10-16T02:12:37;50354.47;;;-139.84;80.00
6528;BME280;3297;42.664;23.256;2022-10-16T02:15:05;50307.84;;;-139.84;80.45
6528;BME280;3297;42.664;23.256;2022-10-16T02:17:31;50313.66;;;-139.84;81.01
6528;BME280;3297;42.664;23.256;2022-10-16T02:19:58;50331.16;;;-139.84;81.04
6528;BME280;3297;42.664;23.256;2022-10-16T02:22:32;50319.50;;;-139.84;81.38
6528;BME280;3297;42.664;23.256;2022-10-16T02:27:47;50338.94;;;-139.84;80.96
6528;BME280;3297;42.664;23.256;2022-10-16T02:30:24;50335.06;;;-139.84;80.70
6528;BME280;3297;42.664;23.256;2022-10-16T02:32:52;50317.56;;;-139.84;80.74
6528;BME280;3297;42.664;23.256;2022-10-16T02:35:20;50354.47;;;-139.84;80.60
6528;BME280;3297;42.664;23.256;2022-10-16T02:37:48;50333.09;;;-139.84;80.73
6528;BME280;3297;42.664;23.256;2022-10-16T02:40:15;50331.16;;;-139.84;80.30
6528;BME280;3297;42.664;23.256;2022-10-16T02:42:41;50319.50;;;-139.84;80.49
6528;BME280;3297;42.664;23.256;2022-10-16T02:45:10;50370.03;;;-139.84;80.38
6528;BME280;3297;42.664;23.256;2022-10-16T02:47:37;50352.53;;;-139.84;80.19
6528;BME280;3297;42.664;23.256;2022-10-16T02:50:03;50366.16;;;-139.84;80.52
6528;BME280;3297;42.664;23.256;2022-10-16T02:52:29;50346.72;;;-139.84;80.48
6528;BME280;3297;42.664;23.256;2022-10-16T02:54:55;50366.16;;;-139.84;80.41
6528;BME280;3297;42.664;23.256;2022-10-16T02:57:21;50368.09;;;-139.84;80.13
6528;BME280;3297;42.664;23.256;2022-10-16T02:59:46;50327.28;;;-139.84;79.90
6528;BME280;3297;42.664;23.256;2022-10-16T03:02:12;50342.81;;;-139.84;79.78
6528;BME280;3297;42.664;23.256;2022-10-16T03:04:39;50319.50;;;-139.84;79.54
6528;BME280;3297;42.664;23.256;2022-10-16T03:07:05;50327.28;;;-139.84;79.36
6528;BME280;3297;42.664;23.256;2022-10-16T03:09:32;50335.06;;;-139.84;79.21
6528;BME280;3297;42.664;23.256;2022-10-16T03:11:58;50401.13;;;-139.84;79.20
6528;BME280;3297;42.664;23.256;2022-10-16T03:14:25;50354.47;;;-139.84;79.39
6528;BME280;3297;42.664;23.256;2022-10-16T03:16:51;50327.28;;;-139.84;79.67
6528;BME280;3297;42.664;23.256;2022-10-16T03:19:17;50368.09;;;-139.84;79.42
6528;BME280;3297;42.664;23.256;2022-10-16T03:21:43;50329.22;;;-139.84;78.92
6528;BME280;3297;42.664;23.256;2022-10-16T03:24:10;50354.47;;;-139.84;78.51
6528;BME280;3297;42.664;23.256;2022-10-16T03:26:36;50362.25;;;-139.84;78.51
6528;BME280;3297;42.664;23.256;2022-10-16T03:29:02;50303.94;;;-139.84;78.79
6528;BME280;3297;42.664;23.256;2022-10-16T03:31:29;50350.59;;;-139.84;78.89
6528;BME280;3297;42.664;23.256;2022-10-16T03:33:55;50317.56;;;-139.84;78.57
6528;BME280;3297;42.664;23.256;2022-10-16T03:36:21;50335.06;;;-139.84;78.82
6528;BME280;3297;42.664;23.256;2022-10-16T03:38:47;50315.63;;;-139.84;79.33
6528;BME280;3297;42.664;23.256;2022-10-16T03:41:14;50344.75;;;-139.84;79.28
6528;BME280;3297;42.664;23.256;2022-10-16T03:43:41;50319.50;;;-139.84;79.80
6528;BME280;3297;42.664;23.256;2022-10-16T03:46:07;50319.50;;;-139.84;79.83
6528;BME280;3297;42.664;23.256;2022-10-16T03:48:34;50346.72;;;-139.84;80.17
6528;BME280;3297;42.664;23.256;2022-10-16T03:51:01;50321.44;;;-139.84;79.37
6528;BME280;3297;42.664;23.256;2022-10-16T03:53:28;50354.47;;;-139.84;79.05
6528;BME280;3297;42.664;23.256;2022-10-16T03:55:53;50358.38;;;-139.84;78.97
6528;BME280;3297;42.664;23.256;2022-10-16T03:58:20;50354.47;;;-139.84;79.41
6528;BME280;3297;42.664;23.256;2022-10-16T04:00:46;50338.94;;;-139.84;79.42
6528;BME280;3297;42.664;23.256;2022-10-16T04:03:15;50344.75;;;-139.84;79.37
6528;BME280;3297;42.664;23.256;2022-10-16T04:05:41;50362.25;;;-139.84;79.63
6528;BME280;3297;42.664;23.256;2022-10-16T04:08:10;50321.44;;;-139.84;79.43
6528;BME280;3297;42.664;23.256;2022-10-16T04:10:36;50337.00;;;-139.84;79.45
6528;BME280;3297;42.664;23.256;2022-10-16T04:13:01;50323.38;;;-139.84;79.34
6528;BME280;3297;42.664;23.256;2022-10-16T04:15:27;50350.59;;;-139.84;79.37
6528;BME280;3297;42.664;23.256;2022-10-16T04:17:53;50395.31;;;-139.84;79.37
6528;BME280;3297;42.664;23.256;2022-10-16T04:20:19;50340.88;;;-139.84;79.29
6528;BME280;3297;42.664;23.256;2022-10-16T04:22:45;50335.06;;;-139.84;78.93
6528;BME280;3297;42.664;23.256;2022-10-16T04:25:12;50327.28;;;-139.84;78.87
6528;BME280;3297;42.664;23.256;2022-10-16T04:27:39;50358.38;;;-139.84;78.98
6528;BME280;3297;42.664;23.256;2022-10-16T04:30:06;50360.31;;;-139.84;79.37
6528;BME280;3297;42.664;23.256;2022-10-16T04:32:32;50327.28;;;-139.84;79.18
6528;BME280;3297;42.664;23.256;2022-10-16T04:34:57;50325.34;;;-139.84;79.19
6528;BME280;3297;42.664;23.256;2022-10-16T04:37:27;50346.72;;;-139.84;79.23
6528;BME280;3297;42.664;23.256;2022-10-16T04:39:53;50362.25;;;-139.84;78.91
6528;BME280;3297;42.664;23.256;2022-10-16T04:42:20;50331.16;;;-139.84;78.73
6528;BME280;3297;42.664;23.256;2022-10-16T04:44:47;50358.38;;;-139.84;78.66
6528;BME280;3297;42.664;23.256;2022-10-16T04:47:14;50366.16;;;-139.84;78.14
6528;BME280;3297;42.664;23.256;2022-10-16T04:49:40;50331.16;;;-139.84;78.35
6528;BME280;3297;42.664;23.256;2022-10-16T04:52:07;50327.28;;;-139.84;78.49
6528;BME280;3297;42.664;23.256;2022-10-16T04:54:35;50362.25;;;-139.84;78.79
6528;BME280;3297;42.664;23.256;2022-10-16T04:57:01;50331.16;;;-139.84;79.01
6528;BME280;3297;42.664;23.256;2022-10-16T04:59:28;50335.06;;;-139.84;78.68
6528;BME280;3297;42.664;23.256;2022-10-16T05:01:53;50307.84;;;-139.84;78.20
6528;BME280;3297;42.664;23.256;2022-10-16T05:04:19;50338.94;;;-139.84;78.50
6528;BME280;3297;42.664;23.256;2022-10-16T05:06:47;50342.81;;;-139.84;78.24
6528;BME280;3297;42.664;23.256;2022-10-16T05:09:13;50319.50;;;-139.84;77.78
6528;BME280;3297;42.664;23.256;2022-10-16T05:11:40;50370.03;;;-139.84;78.14
6528;BME280;3297;42.664;23.256;2022-10-16T05:14:06;50346.72;;;-139.84;77.96
6528;BME280;3297;42.664;23.256;2022-10-16T05:16:32;50385.59;;;-139.84;78.26
6528;BME280;3297;42.664;23.256;2022-10-16T05:18:58;50346.72;;;-139.84;78.29
6528;BME280;3297;42.664;23.256;2022-10-16T05:21:24;50333.09;;;-139.84;78.32
6528;BME280;3297;42.664;23.256;2022-10-16T05:23:53;50364.19;;;-139.84;78.54
6528;BME280;3297;42.664;23.256;2022-10-16T05:26:18;50340.88;;;-139.84;78.41
6528;BME280;3297;42.664;23.256;2022-10-16T05:28:44;50381.69;;;-139.84;78.67
6528;BME280;3297;42.664;23.256;2022-10-16T05:31:10;50338.94;;;-139.84;78.71
6528;BME280;3297;42.664;23.256;2022-10-16T05:33:36;50350.59;;;-139.84;78.93
6528;BME280;3297;42.664;23.256;2022-10-16T05:36:07;50377.81;;;-139.84;78.92
6528;BME280;3297;42.664;23.256;2022-10-16T05:38:37;50418.63;;;-139.84;94.54
6528;BME280;3297;42.664;23.256;2022-10-16T05:41:04;50410.84;;;-139.84;100.00
6528;BME280;3297;42.664;23.256;2022-10-16T05:43:31;50449.72;;;-139.84;100.00
6528;BME280;3297;42.664;23.256;2022-10-16T05:46:00;50420.56;;;-139.84;100.00
6528;BME280;3297;42.664;23.256;2022-10-16T05:48:26;50449.72;;;-139.84;100.00
6528;BME280;3297;42.664;23.256;2022-10-16T05:51:04;50424.47;;;-139.84;81.04
6528;BME280;3297;42.664;23.256;2022-10-16T05:53:31;50408.91;;;-139.84;79.50
6528;BME280;3297;42.664;23.256;2022-10-16T05:55:58;50455.56;;;-139.84;74.40
6528;BME280;3297;42.664;23.256;2022-10-16T05:58:25;50473.03;;;-139.84;98.43
6528;BME280;3297;42.664;23.256;2022-10-16T06:00:59;50496.38;;;-139.84;91.13
6528;BME280;3297;42.664;23.256;2022-10-16T06:03:26;50525.53;;;-139.84;80.05
6528;BME280;3297;42.664;23.256;2022-10-16T06:05:52;50473.03;;;-139.84;69.82
6528;BME280;3297;42.664;23.256;2022-10-16T06:08:21;50471.09;;;-139.84;68.33
6528;BME280;3297;42.664;23.256;2022-10-16T06:10:47;50513.88;;;-139.84;65.98
6528;BME280;3297;42.664;23.256;2022-10-16T06:13:14;50521.63;;;-139.84;62.24
6528;BME280;3297;42.664;23.256;2022-10-16T06:15:41;50502.19;;;-139.84;63.00
6528;BME280;3297;42.664;23.256;2022-10-16T06:18:09;50527.47;;;-139.84;61.41
6528;BME280;3297;42.664;23.256;2022-10-16T06:20:35;50509.97;;;-139.84;61.68
6528;BME280;3297;42.664;23.256;2022-10-16T06:23:02;50517.75;;;-139.84;58.95
6528;BME280;3297;42.664;23.256;2022-10-16T06:25:30;50529.41;;;-139.84;57.61
6528;BME280;3297;42.664;23.256;2022-10-16T06:27:56;50562.47;;;-139.84;56.73
6528;BME280;3297;42.664;23.256;2022-10-16T06:30:22;50490.53;;;-139.84;55.96
6528;BME280;3297;42.664;23.256;2022-10-16T06:32:48;50502.19;;;-139.84;56.39
6528;BME280;3297;42.664;23.256;2022-10-16T06:35:15;50537.19;;;-139.84;53.96
6528;BME280;3297;42.664;23.256;2022-10-16T06:37:40;50537.19;;;-139.84;53.55
6528;BME280;3297;42.664;23.256;2022-10-16T06:40:06;50541.06;;;-139.84;58.71
6528;BME280;3297;42.664;23.256;2022-10-16T06:42:33;50537.19;;;-139.84;53.93
6528;BME280;3297;42.664;23.256;2022-10-16T06:44:59;50535.25;;;-139.84;52.53
6528;BME280;3297;42.664;23.256;2022-10-16T06:47:25;50548.84;;;-139.84;52.40
6528;BME280;3297;42.664;23.256;2022-10-16T06:49:50;50560.50;;;-139.84;50.25
6528;BME280;3297;42.664;23.256;2022-10-16T06:52:17;50578.00;;;-139.84;48.55
6528;BME280;3297;42.664;23.256;2022-10-16T06:54:43;50541.06;;;-139.84;47.75
6528;BME280;3297;42.664;23.256;2022-10-16T06:57:10;50556.63;;;-139.84;48.42
6528;BME280;3297;42.664;23.256;2022-10-16T06:59:36;50579.94;;;-139.84;48.17
6528;BME280;3297;42.664;23.256;2022-10-16T07:02:02;50552.75;;;-139.84;47.73
6528;BME280;3297;42.664;23.256;2022-10-16T07:04:28;50568.28;;;-139.84;48.36
6528;BME280;3297;42.664;23.256;2022-10-16T07:07:00;50560.50;;;-139.84;46.40
6528;BME280;3297;42.664;23.256;2022-10-16T07:09:25;50544.97;;;-139.84;45.29
6528;BME280;3297;42.664;23.256;2022-10-16T07:11:51;50564.41;;;-139.84;45.20
6528;BME280;3297;42.664;23.256;2022-10-16T07:14:18;50560.50;;;-139.84;45.00
6528;BME280;3297;42.664;23.256;2022-10-16T07:16:44;50576.06;;;-139.84;44.74
6528;BME280;3297;42.664;23.256;2022-10-16T07:19:10;50564.41;;;-139.84;43.10
6528;BME280;3297;42.664;23.256;2022-10-16T07:21:42;50595.50;;;-139.84;43.17
6528;BME280;3297;42.664;23.256;2022-10-16T07:24:13;50587.72;;;-139.84;42.88
6528;BME280;3297;42.664;23.256;2022-10-16T07:26:43;50560.50;;;-139.84;42.72
6528;BME280;3297;42.664;23.256;2022-10-16T07:29:20;50585.78;;;-139.84;41.87
6528;BME280;3297;42.664;23.256;2022-10-16T07:31:47;50599.38;;;-139.84;41.83
6528;BME280;3297;42.664;23.256;2022-10-16T07:34:15;50552.75;;;-139.84;40.41
6528;BME280;3297;42.664;23.256;2022-10-16T07:36:42;50597.44;;;-139.84;40.92
6528;BME280;3297;42.664;23.256;2022-10-16T07:39:08;50583.84;;;-139.84;40.76
6528;BME280;3297;42.664;23.256;2022-10-16T07:41:34;50630.50;;;-139.84;40.97
6528;BME280;3297;42.664;23.256;2022-10-16T07:44:02;50583.84;;;-139.84;40.16
6528;BME280;3297;42.664;23.256;2022-10-16T07:46:29;50546.91;;;-139.84;40.33
6528;BME280;3297;42.664;23.256;2022-10-16T07:48:55;50562.47;;;-139.84;40.26
6528;BME280;3297;42.664;23.256;2022-10-16T07:51:23;50599.38;;;-139.84;39.66
6528;BME280;3297;42.664;23.256;2022-10-16T07:53:50;50579.94;;;-139.84;40.19
6528;BME280;3297;42.664;23.256;2022-10-16T07:56:17;50603.28;;;-139.84;38.81
6528;BME280;3297;42.664;23.256;2022-10-16T07:58:44;50560.50;;;-139.84;39.35
6528;BME280;3297;42.664;23.256;2022-10-16T08:01:12;50616.88;;;-139.84;39.43
6528;BME280;3297;42.664;23.256;2022-10-16T08:03:41;50614.94;;;-139.84;39.51
6528;BME280;3297;42.664;23.256;2022-10-16T08:06:07;50595.50;;;-139.84;38.99
6528;BME280;3297;42.664;23.256;2022-10-16T08:08:33;50599.38;;;-139.84;39.63
6528;BME280;3297;42.664;23.256;2022-10-16T08:10:59;50611.06;;;-139.84;38.55
6528;BME280;3297;42.664;23.256;2022-10-16T08:13:29;50583.84;;;-139.84;38.01
6528;BME280;3297;42.664;23.256;2022-10-16T08:15:55;50618.81;;;-139.84;37.61
6528;BME280;3297;42.664;23.256;2022-10-16T08:18:21;50605.22;;;-139.84;37.25
6528;BME280;3297;42.664;23.256;2022-10-16T08:20:47;50587.72;;;-139.84;37.19
6528;BME280;3297;42.664;23.256;2022-10-16T08:23:13;50568.28;;;-139.84;37.71
6528;BME280;3297;42.664;23.256;2022-10-16T08:25:39;50554.69;;;-139.84;37.34
6528;BME280;3297;42.664;23.256;2022-10-16T08:28:06;50642.16;;;-139.84;36.49
6528;BME280;3297;42.664;23.256;2022-10-16T08:30:37;50599.38;;;-139.84;36.69
6528;BME280;3297;42.664;23.256;2022-10-16T08:33:03;50601.34;;;-139.84;36.53
6528;BME280;3297;42.664;23.256;2022-10-16T08:35:29;50564.41;;;-139.84;36.65
6528;BME280;3297;42.664;23.256;2022-10-16T08:37:56;50634.38;;;-139.84;37.49
6528;BME280;3297;42.664;23.256;2022-10-16T08:40:25;50576.06;;;-139.84;36.77
6528;BME280;3297;42.664;23.256;2022-10-16T08:48:17;50552.75;;;-139.84;35.95
6528;BME280;3297;42.664;23.256;2022-10-16T08:50:45;50597.44;;;-139.84;35.43
6528;BME280;3297;42.664;23.256;2022-10-16T08:53:24;50587.72;;;-139.84;35.63
6528;BME280;3297;42.664;23.256;2022-10-16T08:55:53;50599.38;;;-139.84;35.49
6528;BME280;3297;42.664;23.256;2022-10-16T08:58:26;50576.06;;;-139.84;35.13
6528;BME280;3297;42.664;23.256;2022-10-16T09:01:03;50634.38;;;-139.84;35.03
6528;BME280;3297;42.664;23.256;2022-10-16T09:03:53;50576.06;;;-139.84;34.28
6528;BME280;3297;42.664;23.256;2022-10-16T09:12:05;50595.50;;;-139.84;33.73
6528;BME280;3297;42.664;23.256;2022-10-16T09:17:40;50583.84;;;-139.84;33.69
6528;BME280;3297;42.664;23.256;2022-10-16T09:20:30;50585.78;;;-139.84;32.76
6528;BME280;3297;42.664;23.256;2022-10-16T09:25:32;50587.72;;;-139.84;52.67
6528;BME280;3297;42.664;23.256;2022-10-16T09:27:59;50616.88;;;-139.84;49.51
6528;BME280;3297;42.664;23.256;2022-10-16T09:30:27;50638.25;;;-139.84;43.58
6528;BME280;3297;42.664;23.256;2022-10-16T09:32:55;50614.94;;;-139.84;38.96
6528;BME280;3297;42.664;23.256;2022-10-16T09:35:45;50626.59;;;-139.84;35.78
6528;BME280;3297;42.664;23.256;2022-10-16T09:40:48;50599.38;;;-139.84;35.30
6528;BME280;3297;42.664;23.256;2022-10-16T09:43:32;50607.16;;;-139.84;34.04
6528;BME280;3297;42.664;23.256;2022-10-16T09:46:03;50622.72;;;-139.84;34.12
6528;BME280;3297;42.664;23.256;2022-10-16T09:48:44;50638.25;;;-139.84;33.78
6528;BME280;3297;42.664;23.256;2022-10-16T09:51:24;50642.16;;;-139.84;33.46
6528;BME280;3297;42.664;23.256;2022-10-16T09:53:57;50632.44;;;-139.84;32.80
6528;BME280;3297;42.664;23.256;2022-10-16T09:56:33;50595.50;;;-139.84;32.92
6528;BME280;3297;42.664;23.256;2022-10-16T09:59:12;50603.28;;;-139.84;30.89
6528;BME280;3297;42.664;23.256;2022-10-16T10:01:40;50601.34;;;-139.84;32.88
6528;BME280;3297;42.664;23.256;2022-10-16T10:04:07;50613.00;;;-139.84;32.47
6528;BME280;3297;42.664;23.256;2022-10-16T10:06:36;50591.63;;;-139.84;32.38
6528;BME280;3297;42.664;23.256;2022-10-16T10:11:48;50595.50;;;-139.84;29.10
6528;BME280;3297;42.664;23.256;2022-10-16T10:14:26;50599.38;;;-139.84;29.54
6528;BME280;3297;42.664;23.256;2022-10-16T10:24:56;50525.53;;;-139.84;29.89
6528;BME280;3297;42.664;23.256;2022-10-16T10:27:26;50560.50;;;-139.84;30.69
6528;BME280;3297;42.664;23.256;2022-10-16T10:30:20;50513.88;;;-139.84;30.16
6528;BME280;3297;42.664;23.256;2022-10-16T10:35:45;50583.84;;;-139.84;30.75
6528;BME280;3297;42.664;23.256;2022-10-16T10:38:29;50554.69;;;-139.84;31.13
6528;BME280;3297;42.664;23.256;2022-10-16T10:44:11;50564.41;;;-139.84;29.90
6528;BME280;3297;42.664;23.256;2022-10-16T10:52:02;50548.84;;;-139.84;30.30
6528;BME280;3297;42.664;23.256;2022-10-16T10:54:53;50566.34;;;-139.84;29.89
6528;BME280;3297;42.664;23.256;2022-10-16T11:08:25;50541.06;;;-139.84;30.37
6528;BME280;3297;42.664;23.256;2022-10-16T11:11:03;50544.97;;;-139.84;31.10
6528;BME280;3297;42.664;23.256;2022-10-16T11:13:35;50564.41;;;-139.84;31.50
6528;BME280;3297;42.664;23.256;2022-10-16T11:16:21;50527.47;;;-139.84;30.33
6528;BME280;3297;42.664;23.256;2022-10-16T11:21:59;50552.75;;;-139.84;30.34
6528;BME280;3297;42.664;23.256;2022-10-16T11:24:41;50521.63;;;-139.84;30.20
6528;BME280;3297;42.664;23.256;2022-10-16T11:27:11;50541.06;;;-139.84;30.71
6528;BME280;3297;42.664;23.256;2022-10-16T11:29:52;50564.41;;;-139.84;30.03
6528;BME280;3297;42.664;23.256;2022-10-16T11:32:31;50546.91;;;-139.84;29.78
6528;BME280;3297;42.664;23.256;2022-10-16T11:35:14;50568.28;;;-139.84;29.78
6528;BME280;3297;42.664;23.256;2022-10-16T11:37:46;50544.97;;;-139.84;29.46
6528;BME280;3297;42.664;23.256;2022-10-16T11:40:29;50546.91;;;-139.84;29.07
6528;BME280;3297;42.664;23.256;2022-10-16T11:43:06;50579.94;;;-139.84;29.86
6528;BME280;3297;42.664;23.256;2022-10-16T11:45:57;50548.84;;;-139.84;28.65
6528;BME280;3297;42.664;23.256;2022-10-16T11:48:57;50509.97;;;-139.84;29.50
6528;BME280;3297;42.664;23.256;2022-10-16T11:54:08;50527.47;;;-139.84;29.99
6528;BME280;3297;42.664;23.256;2022-10-16T11:56:44;50548.84;;;-139.84;30.47
6528;BME280;3297;42.664;23.256;2022-10-16T11:59:35;50529.41;;;-139.84;29.05
6528;BME280;3297;42.664;23.256;2022-10-16T12:07:41;50523.59;;;-139.84;29.22
6528;BME280;3297;42.664;23.256;2022-10-16T12:10:28;50527.47;;;-139.84;29.39
6528;BME280;3297;42.664;23.256;2022-10-16T12:12:56;50513.88;;;-139.84;29.92
6528;BME280;3297;42.664;23.256;2022-10-16T12:17:49;50513.88;;;-139.84;31.09
6528;BME280;3297;42.664;23.256;2022-10-16T12:20:36;50546.91;;;-139.84;30.71
6528;BME280;3297;42.664;23.256;2022-10-16T12:23:05;50539.13;;;-139.84;29.61
6528;BME280;3297;42.664;23.256;2022-10-16T12:25:34;50500.25;;;-139.84;30.04
6528;BME280;3297;42.664;23.256;2022-10-16T12:28:07;50498.31;;;-139.84;30.03
6528;BME280;3297;42.664;23.256;2022-10-16T12:30:43;50519.69;;;-139.84;31.39
6528;BME280;3297;42.664;23.256;2022-10-16T12:33:24;50513.88;;;-139.84;32.28
6528;BME280;3297;42.664;23.256;2022-10-16T12:35:51;50511.91;;;-139.84;31.26
6528;BME280;3297;42.664;23.256;2022-10-16T12:38:22;50496.38;;;-139.84;31.59
6528;BME280;3297;42.664;23.256;2022-10-16T12:41:03;50509.97;;;-139.84;32.88
6528;BME280;3297;42.664;23.256;2022-10-16T12:43:37;50490.53;;;-139.84;33.38
6528;BME280;3297;42.664;23.256;2022-10-16T12:48:41;50498.31;;;-139.84;32.89
6528;BME280;3297;42.664;23.256;2022-10-16T12:51:34;50548.84;;;-139.84;32.62
6528;BME280;3297;42.664;23.256;2022-10-16T12:56:46;50467.22;;;-139.84;32.64
6528;BME280;3297;42.664;23.256;2022-10-16T13:10:35;50533.31;;;-139.84;33.42
6528;BME280;3297;42.664;23.256;2022-10-16T13:13:39;50515.81;;;-139.84;32.74
6528;BME280;3297;42.664;23.256;2022-10-16T13:29:21;50498.31;;;-139.84;33.54
6528;BME280;3297;42.664;23.256;2022-10-16T13:31:48;50506.09;;;-139.84;33.24
6528;BME280;3297;42.664;23.256;2022-10-16T13:34:19;50509.97;;;-139.84;33.54
6528;BME280;3297;42.664;23.256;2022-10-16T13:36:48;50498.31;;;-139.84;33.46
6528;BME280;3297;42.664;23.256;2022-10-16T13:39:23;50498.31;;;-139.84;33.35
6528;BME280;3297;42.664;23.256;2022-10-16T13:42:27;50562.47;;;-139.84;33.63
6528;BME280;3297;42.664;23.256;2022-10-16T13:44:55;50471.09;;;-139.84;33.63
6528;BME280;3297;42.664;23.256;2022-10-16T13:47:29;50478.88;;;-139.84;33.40
6528;BME280;3297;42.664;23.256;2022-10-16T13:50:01;50471.09;;;-139.84;33.03
6528;BME280;3297;42.664;23.256;2022-10-16T13:52:27;50473.03;;;-139.84;33.10
6528;BME280;3297;42.664;23.256;2022-10-16T13:54:53;50517.75;;;-139.84;33.57
6528;BME280;3297;42.664;23.256;2022-10-16T13:57:22;50515.81;;;-139.84;33.80
6528;BME280;3297;42.664;23.256;2022-10-16T13:59:48;50476.94;;;-139.84;33.69
6528;BME280;3297;42.664;23.256;2022-10-16T14:02:20;50496.38;;;-139.84;34.06
6528;BME280;3297;42.664;23.256;2022-10-16T14:04:47;50508.03;;;-139.84;33.46
6528;BME280;3297;42.664;23.256;2022-10-16T14:07:20;50482.78;;;-139.84;33.99
6528;BME280;3297;42.664;23.256;2022-10-16T14:09:50;50482.78;;;-139.84;33.62
6528;BME280;3297;42.664;23.256;2022-10-16T14:12:15;50463.34;;;-139.84;33.96
6528;BME280;3297;42.664;23.256;2022-10-16T14:14:50;50482.78;;;-139.84;34.20
6528;BME280;3297;42.664;23.256;2022-10-16T14:17:22;50486.66;;;-139.84;34.51
6528;BME280;3297;42.664;23.256;2022-10-16T14:19:51;50463.34;;;-139.84;34.27
6528;BME280;3297;42.664;23.256;2022-10-16T14:24:51;50509.97;;;-139.84;34.52
6528;BME280;3297;42.664;23.256;2022-10-16T14:27:32;50459.44;;;-139.84;34.48
6528;BME280;3297;42.664;23.256;2022-10-16T14:30:32;50471.09;;;-139.84;34.78
6528;BME280;3297;42.664;23.256;2022-10-16T14:33:00;50467.22;;;-139.84;34.62
6528;BME280;3297;42.664;23.256;2022-10-16T14:35:32;50436.13;;;-139.84;34.65
6528;BME280;3297;42.664;23.256;2022-10-16T14:38:00;50475.00;;;-139.84;34.64
6528;BME280;3297;42.664;23.256;2022-10-16T14:40:31;50469.16;;;-139.84;34.47
6528;BME280;3297;42.664;23.256;2022-10-16T14:42:57;50436.13;;;-139.84;34.53
6528;BME280;3297;42.664;23.256;2022-10-16T14:45:28;50465.28;;;-139.84;34.41
6528;BME280;3297;42.664;23.256;2022-10-16T14:48:00;50492.47;;;-139.84;34.03
6528;BME280;3297;42.664;23.256;2022-10-16T14:50:27;50475.00;;;-139.84;34.36
6528;BME280;3297;42.664;23.256;2022-10-16T14:52:53;50476.94;;;-139.84;34.49
6528;BME280;3297;42.664;23.256;2022-10-16T14:55:20;50441.94;;;-139.84;34.86
6528;BME280;3297;42.664;23.256;2022-10-16T14:57:46;50478.88;;;-139.84;34.54
6528;BME280;3297;42.664;23.256;2022-10-16T15:02:42;50488.59;;;-139.84;66.47